sensor_id;sensor_type;location;lat;lon;timestamp;temperature;humidity
38265;DHT22;24062;47.480;8.768;2023-04-01T00:01:05;8.00;81.60
38265;DHT22;24062;47.480;8.768;2023-04-01T00:03:33;8.00;81.80
38265;DHT22;24062;47.480;8.768;2023-04-01T00:06:00;7.90;82.20
38265;DHT22;24062;47.480;8.768;2023-04-01T00:08:28;7.90;82.50
38265;DHT22;24062;47.480;8.768;2023-04-01T00:10:56;7.90;83.00
38265;DHT22;24062;47.480;8.768;2023-04-01T00:13:26;7.90;82.80
38265;DHT22;24062;47.480;8.768;2023-04-01T00:15:53;7.90;83.00
38265;DHT22;24062;47.480;8.768;2023-04-01T00:18:21;7.90;83.50
38265;DHT22;24062;47.480;8.768;2023-04-01T00:20:49;7.90;83.70
38265;DHT22;24062;47.480;8.768;2023-04-01T00:23:16;7.90;83.20
38265;DHT22;24062;47.480;8.768;2023-04-01T00:25:44;7.90;83.30
38265;DHT22;24062;47.480;8.768;2023-04-01T00:28:11;8.00;83.40
38265;DHT22;24062;47.480;8.768;2023-04-01T00:30:39;8.00;83.40
38265;DHT22;24062;47.480;8.768;2023-04-01T00:33:06;8.00;83.10
38265;DHT22;24062;47.480;8.768;2023-04-01T00:35:33;7.90;83.00
38265;DHT22;24062;47.480;8.768;2023-04-01T00:38:00;7.90;83.40
38265;DHT22;24062;47.480;8.768;2023-04-01T00:40:29;7.90;83.70
38265;DHT22;24062;47.480;8.768;2023-04-01T00:42:57;7.90;83.30
38265;DHT22;24062;47.480;8.768;2023-04-01T00:45:31;7.90;83.40
38265;DHT22;24062;47.480;8.768;2023-04-01T00:48:01;7.90;82.90
38265;DHT22;24062;47.480;8.768;2023-04-01T00:50:31;7.90;83.50
38265;DHT22;24062;47.480;8.768;2023-04-01T00:53:00;8.00;84.20
38265;DHT22;24062;47.480;8.768;2023-04-01T00:55:30;8.00;83.70
38265;DHT22;24062;47.480;8.768;2023-04-01T00:57:59;8.00;82.80
38265;DHT22;24062;47.480;8.768;2023-04-01T01:00:26;8.00;83.20
38265;DHT22;24062;47.480;8.768;2023-04-01T01:02:53;8.00;83.50
38265;DHT22;24062;47.480;8.768;2023-04-01T01:05:30;8.00;82.90
38265;DHT22;24062;47.480;8.768;2023-04-01T01:08:06;8.00;82.60
38265;DHT22;24062;47.480;8.768;2023-04-01T01:10:38;8.00;82.10
38265;DHT22;24062;47.480;8.768;2023-04-01T01:13:10;8.10;82.40
38265;DHT22;24062;47.480;8.768;2023-04-01T01:15:43;8.10;81.50
38265;DHT22;24062;47.480;8.768;2023-04-01T01:18:18;8.10;81.20
38265;DHT22;24062;47.480;8.768;2023-04-01T01:24:09;8.10;81.00
38265;DHT22;24062;47.480;8.768;2023-04-01T01:26:57;8.10;80.70
38265;DHT22;24062;47.480;8.768;2023-04-01T01:30:01;8.00;80.20
38265;DHT22;24062;47.480;8.768;2023-04-01T01:32:45;8.00;80.40
38265;DHT22;24062;47.480;8.768;2023-04-01T01:35:20;8.00;80.60
38265;DHT22;24062;47.480;8.768;2023-04-01T01:37:50;8.00;80.30
38265;DHT22;24062;47.480;8.768;2023-04-01T01:40:18;8.00;80.30
38265;DHT22;24062;47.480;8.768;2023-04-01T01:42:50;8.00;80.50
38265;DHT22;24062;47.480;8.768;2023-04-01T01:45:21;7.90;80.00
38265;DHT22;24062;47.480;8.768;2023-04-01T01:47:50;7.90;80.50
38265;DHT22;24062;47.480;8.768;2023-04-01T01:50:19;7.90;80.30
38265;DHT22;24062;47.480;8.768;2023-04-01T01:52:47;7.90;80.70
38265;DHT22;24062;47.480;8.768;2023-04-01T01:55:28;7.90;80.10
38265;DHT22;24062;47.480;8.768;2023-04-01T01:57:58;7.90;80.40
38265;DHT22;24062;47.480;8.768;2023-04-01T02:00:26;7.90;80.30
38265;DHT22;24062;47.480;8.768;2023-04-01T02:02:54;7.90;80.20
38265;DHT22;24062;47.480;8.768;2023-04-01T02:05:24;7.90;80.50
38265;DHT22;24062;47.480;8.768;2023-04-01T02:07:57;8.00;80.80
38265;DHT22;24062;47.480;8.768;2023-04-01T02:10:29;7.90;79.90
38265;DHT22;24062;47.480;8.768;2023-04-01T02:13:00;7.90;79.80
38265;DHT22;24062;47.480;8.768;2023-04-01T02:15:31;7.90;79.70
38265;DHT22;24062;47.480;8.768;2023-04-01T02:18:01;7.90;80.20
38265;DHT22;24062;47.480;8.768;2023-04-01T02:20:30;7.90;79.40
38265;DHT22;24062;47.480;8.768;2023-04-01T02:22:58;7.90;79.00
38265;DHT22;24062;47.480;8.768;2023-04-01T02:25:28;7.90;79.60
38265;DHT22;24062;47.480;8.768;2023-04-01T02:27:58;8.00;79.80
38265;DHT22;24062;47.480;8.768;2023-04-01T02:30:27;8.00;79.30
38265;DHT22;24062;47.480;8.768;2023-04-01T02:32:56;7.90;79.10
38265;DHT22;24062;47.480;8.768;2023-04-01T02:35:23;7.90;78.70
38265;DHT22;24062;47.480;8.768;2023-04-01T02:37:54;7.90;78.40
38265;DHT22;24062;47.480;8.768;2023-04-01T02:40:21;7.80;78.60
38265;DHT22;24062;47.480;8.768;2023-04-01T02:42:48;7.80;78.30
38265;DHT22;24062;47.480;8.768;2023-04-01T02:45:16;7.80;78.10
38265;DHT22;24062;47.480;8.768;2023-04-01T02:47:43;7.80;78.30
38265;DHT22;24062;47.480;8.768;2023-04-01T02:50:10;7.80;78.20
38265;DHT22;24062;47.480;8.768;2023-04-01T02:52:37;7.80;77.50
38265;DHT22;24062;47.480;8.768;2023-04-01T02:55:06;7.90;78.00
38265;DHT22;24062;47.480;8.768;2023-04-01T02:57:33;7.90;77.80
38265;DHT22;24062;47.480;8.768;2023-04-01T03:00:00;7.90;77.60
38265;DHT22;24062;47.480;8.768;2023-04-01T03:02:28;7.90;78.20
38265;DHT22;24062;47.480;8.768;2023-04-01T03:04:55;7.80;78.10
38265;DHT22;24062;47.480;8.768;2023-04-01T03:07:22;7.70;78.40
38265;DHT22;24062;47.480;8.768;2023-04-01T03:09:49;7.60;78.90
38265;DHT22;24062;47.480;8.768;2023-04-01T03:12:17;7.60;79.00
38265;DHT22;24062;47.480;8.768;2023-04-01T03:14:44;7.50;79.00
38265;DHT22;24062;47.480;8.768;2023-04-01T03:17:11;7.50;78.90
38265;DHT22;24062;47.480;8.768;2023-04-01T03:19:38;7.50;78.40
38265;DHT22;24062;47.480;8.768;2023-04-01T03:22:05;7.40;78.60
38265;DHT22;24062;47.480;8.768;2023-04-01T03:24:32;7.40;78.60
38265;DHT22;24062;47.480;8.768;2023-04-01T03:26:59;7.40;78.70
38265;DHT22;24062;47.480;8.768;2023-04-01T03:29:27;7.30;78.60
38265;DHT22;24062;47.480;8.768;2023-04-01T03:31:54;7.30;79.40
38265;DHT22;24062;47.480;8.768;2023-04-01T03:34:23;7.30;78.30
38265;DHT22;24062;47.480;8.768;2023-04-01T03:36:51;7.30;78.30
38265;DHT22;24062;47.480;8.768;2023-04-01T03:39:17;7.20;78.40
38265;DHT22;24062;47.480;8.768;2023-04-01T03:41:45;7.20;78.60
38265;DHT22;24062;47.480;8.768;2023-04-01T03:44:12;7.10;78.40
38265;DHT22;24062;47.480;8.768;2023-04-01T03:46:40;7.20;78.60
38265;DHT22;24062;47.480;8.768;2023-04-01T03:49:08;7.10;78.40
38265;DHT22;24062;47.480;8.768;2023-04-01T03:51:37;7.20;78.50
38265;DHT22;24062;47.480;8.768;2023-04-01T03:54:04;7.20;78.60
38265;DHT22;24062;47.480;8.768;2023-04-01T03:56:32;7.20;78.10
38265;DHT22;24062;47.480;8.768;2023-04-01T03:59:02;7.30;78.00
38265;DHT22;24062;47.480;8.768;2023-04-01T04:01:29;7.20;78.00
38265;DHT22;24062;47.480;8.768;2023-04-01T04:03:57;7.30;78.30
38265;DHT22;24062;47.480;8.768;2023-04-01T04:06:25;7.20;78.00
38265;DHT22;24062;47.480;8.768;2023-04-01T04:08:52;7.30;77.90
38265;DHT22;24062;47.480;8.768;2023-04-01T04:11:20;7.30;78.00
38265;DHT22;24062;47.480;8.768;2023-04-01T04:13:47;7.30;77.90
38265;DHT22;24062;47.480;8.768;2023-04-01T04:16:14;7.40;77.90
38265;DHT22;24062;47.480;8.768;2023-04-01T04:18:41;7.50;78.50
38265;DHT22;24062;47.480;8.768;2023-04-01T04:21:13;7.50;78.60
38265;DHT22;24062;47.480;8.768;2023-04-01T04:23:40;7.50;78.90
38265;DHT22;24062;47.480;8.768;2023-04-01T04:26:09;7.50;79.40
38265;DHT22;24062;47.480;8.768;2023-04-01T04:28:36;7.40;79.70
38265;DHT22;24062;47.480;8.768;2023-04-01T04:31:03;7.30;79.60
38265;DHT22;24062;47.480;8.768;2023-04-01T04:33:32;7.30;80.00
38265;DHT22;24062;47.480;8.768;2023-04-01T04:35:59;7.30;79.90
38265;DHT22;24062;47.480;8.768;2023-04-01T04:38:28;7.30;80.30
38265;DHT22;24062;47.480;8.768;2023-04-01T04:40:55;7.30;80.40
38265;DHT22;24062;47.480;8.768;2023-04-01T04:43:22;7.20;80.30
38265;DHT22;24062;47.480;8.768;2023-04-01T04:45:49;7.30;80.40
38265;DHT22;24062;47.480;8.768;2023-04-01T04:48:16;7.30;80.20
38265;DHT22;24062;47.480;8.768;2023-04-01T04:50:46;7.30;80.20
38265;DHT22;24062;47.480;8.768;2023-04-01T04:53:15;7.30;80.30
38265;DHT22;24062;47.480;8.768;2023-04-01T04:55:48;7.30;80.10
38265;DHT22;24062;47.480;8.768;2023-04-01T04:58:16;7.40;79.80
38265;DHT22;24062;47.480;8.768;2023-04-01T05:00:43;7.50;79.90
38265;DHT22;24062;47.480;8.768;2023-04-01T05:03:11;7.50;79.70
38265;DHT22;24062;47.480;8.768;2023-04-01T05:05:39;7.50;80.00
38265;DHT22;24062;47.480;8.768;2023-04-01T05:08:06;7.60;79.70
38265;DHT22;24062;47.480;8.768;2023-04-01T05:10:33;7.60;79.60
38265;DHT22;24062;47.480;8.768;2023-04-01T05:13:01;7.60;79.90
38265;DHT22;24062;47.480;8.768;2023-04-01T05:15:28;7.60;79.70
38265;DHT22;24062;47.480;8.768;2023-04-01T05:17:55;7.60;79.20
38265;DHT22;24062;47.480;8.768;2023-04-01T05:20:22;7.60;79.10
38265;DHT22;24062;47.480;8.768;2023-04-01T05:22:49;7.60;78.90
38265;DHT22;24062;47.480;8.768;2023-04-01T05:25:16;7.50;78.70
38265;DHT22;24062;47.480;8.768;2023-04-01T05:27:43;7.50;78.70
38265;DHT22;24062;47.480;8.768;2023-04-01T05:30:12;7.50;78.30
38265;DHT22;24062;47.480;8.768;2023-04-01T05:32:39;7.50;78.30
38265;DHT22;24062;47.480;8.768;2023-04-01T05:35:07;7.50;78.30
38265;DHT22;24062;47.480;8.768;2023-04-01T05:37:34;7.50;78.20
38265;DHT22;24062;47.480;8.768;2023-04-01T05:40:01;7.50;78.30
38265;DHT22;24062;47.480;8.768;2023-04-01T05:42:28;7.50;78.60
38265;DHT22;24062;47.480;8.768;2023-04-01T05:44:55;7.60;78.40
38265;DHT22;24062;47.480;8.768;2023-04-01T05:47:23;7.60;78.50
38265;DHT22;24062;47.480;8.768;2023-04-01T05:49:50;7.60;78.80
38265;DHT22;24062;47.480;8.768;2023-04-01T05:52:17;7.60;78.80
38265;DHT22;24062;47.480;8.768;2023-04-01T05:54:44;7.50;79.30
38265;DHT22;24062;47.480;8.768;2023-04-01T05:57:11;7.40;80.30
38265;DHT22;24062;47.480;8.768;2023-04-01T05:59:38;7.40;80.20
38265;DHT22;24062;47.480;8.768;2023-04-01T06:02:05;7.30;81.40
38265;DHT22;24062;47.480;8.768;2023-04-01T06:04:38;7.40;80.80
38265;DHT22;24062;47.480;8.768;2023-04-01T06:07:11;7.40;80.70
38265;DHT22;24062;47.480;8.768;2023-04-01T06:09:38;7.40;80.70
38265;DHT22;24062;47.480;8.768;2023-04-01T06:12:21;7.50;81.10
38265;DHT22;24062;47.480;8.768;2023-04-01T06:15:00;7.60;80.60
38265;DHT22;24062;47.480;8.768;2023-04-01T06:17:41;7.70;80.50
38265;DHT22;24062;47.480;8.768;2023-04-01T06:20:15;7.60;80.40
38265;DHT22;24062;47.480;8.768;2023-04-01T06:22:59;7.60;80.80
38265;DHT22;24062;47.480;8.768;2023-04-01T06:25:43;7.60;80.90
38265;DHT22;24062;47.480;8.768;2023-04-01T06:28:38;7.70;81.60
38265;DHT22;24062;47.480;8.768;2023-04-01T06:31:20;7.80;81.10
38265;DHT22;24062;47.480;8.768;2023-04-01T06:34:00;8.00;80.70
38265;DHT22;24062;47.480;8.768;2023-04-01T06:36:48;8.00;81.30
38265;DHT22;24062;47.480;8.768;2023-04-01T06:42:52;8.30;80.70
38265;DHT22;24062;47.480;8.768;2023-04-01T06:45:32;8.30;80.80
38265;DHT22;24062;47.480;8.768;2023-04-01T06:48:14;8.40;79.80
38265;DHT22;24062;47.480;8.768;2023-04-01T06:50:51;8.40;79.60
38265;DHT22;24062;47.480;8.768;2023-04-01T06:53:28;8.50;79.80
38265;DHT22;24062;47.480;8.768;2023-04-01T06:56:00;8.50;79.30
38265;DHT22;24062;47.480;8.768;2023-04-01T06:58:33;8.60;79.70
38265;DHT22;24062;47.480;8.768;2023-04-01T07:01:03;8.70;78.90
38265;DHT22;24062;47.480;8.768;2023-04-01T07:03:33;8.80;78.30
38265;DHT22;24062;47.480;8.768;2023-04-01T07:06:03;8.90;78.30
38265;DHT22;24062;47.480;8.768;2023-04-01T07:08:34;9.00;77.70
38265;DHT22;24062;47.480;8.768;2023-04-01T07:11:03;9.10;76.90
38265;DHT22;24062;47.480;8.768;2023-04-01T07:13:33;9.10;75.70
38265;DHT22;24062;47.480;8.768;2023-04-01T07:16:12;9.10;75.90
38265;DHT22;24062;47.480;8.768;2023-04-01T07:18:44;9.10;76.00
38265;DHT22;24062;47.480;8.768;2023-04-01T07:21:22;9.10;75.30
38265;DHT22;24062;47.480;8.768;2023-04-01T07:23:52;9.10;75.60
38265;DHT22;24062;47.480;8.768;2023-04-01T07:26:22;9.10;76.40
38265;DHT22;24062;47.480;8.768;2023-04-01T07:28:51;9.20;76.20
38265;DHT22;24062;47.480;8.768;2023-04-01T07:31:38;9.10;75.50
38265;DHT22;24062;47.480;8.768;2023-04-01T07:34:11;9.20;75.50
38265;DHT22;24062;47.480;8.768;2023-04-01T07:36:42;9.10;75.30
38265;DHT22;24062;47.480;8.768;2023-04-01T07:39:22;9.10;74.70
38265;DHT22;24062;47.480;8.768;2023-04-01T07:41:56;9.10;75.30
38265;DHT22;24062;47.480;8.768;2023-04-01T07:44:29;9.10;76.30
38265;DHT22;24062;47.480;8.768;2023-04-01T07:47:19;9.00;76.00
38265;DHT22;24062;47.480;8.768;2023-04-01T07:49:59;8.90;75.90
38265;DHT22;24062;47.480;8.768;2023-04-01T07:52:34;8.90;76.20
38265;DHT22;24062;47.480;8.768;2023-04-01T07:55:09;8.90;77.10
38265;DHT22;24062;47.480;8.768;2023-04-01T07:57:43;8.90;77.10
38265;DHT22;24062;47.480;8.768;2023-04-01T08:00:19;8.90;76.70
38265;DHT22;24062;47.480;8.768;2023-04-01T08:03:08;8.90;76.40
38265;DHT22;24062;47.480;8.768;2023-04-01T08:05:44;9.00;77.70
38265;DHT22;24062;47.480;8.768;2023-04-01T08:08:19;9.00;77.80
38265;DHT22;24062;47.480;8.768;2023-04-01T08:10:51;9.00;77.20
38265;DHT22;24062;47.480;8.768;2023-04-01T08:13:26;9.00;77.80
38265;DHT22;24062;47.480;8.768;2023-04-01T08:16:06;9.00;78.40
38265;DHT22;24062;47.480;8.768;2023-04-01T08:18:41;9.10;78.80
38265;DHT22;24062;47.480;8.768;2023-04-01T08:21:12;9.00;78.30
38265;DHT22;24062;47.480;8.768;2023-04-01T08:23:44;8.90;78.20
38265;DHT22;24062;47.480;8.768;2023-04-01T08:26:20;8.90;78.60
38265;DHT22;24062;47.480;8.768;2023-04-01T08:28:53;8.80;78.20
38265;DHT22;24062;47.480;8.768;2023-04-01T08:31:28;8.70;79.10
38265;DHT22;24062;47.480;8.768;2023-04-01T08:33:57;8.70;79.30
38265;DHT22;24062;47.480;8.768;2023-04-01T08:36:26;8.60;80.10
38265;DHT22;24062;47.480;8.768;2023-04-01T08:38:57;8.60;80.30
38265;DHT22;24062;47.480;8.768;2023-04-01T08:41:38;8.60;80.80
38265;DHT22;24062;47.480;8.768;2023-04-01T08:44:29;8.50;80.90
38265;DHT22;24062;47.480;8.768;2023-04-01T08:47:20;8.40;80.70
38265;DHT22;24062;47.480;8.768;2023-04-01T08:52:49;8.30;81.30
38265;DHT22;24062;47.480;8.768;2023-04-01T08:55:41;8.30;81.60
38265;DHT22;24062;47.480;8.768;2023-04-01T09:01:43;8.30;82.50
38265;DHT22;24062;47.480;8.768;2023-04-01T09:04:34;8.20;82.70
38265;DHT22;24062;47.480;8.768;2023-04-01T09:07:17;8.20;82.70
38265;DHT22;24062;47.480;8.768;2023-04-01T09:10:08;8.20;83.20
38265;DHT22;24062;47.480;8.768;2023-04-01T09:12:59;8.30;83.00
38265;DHT22;24062;47.480;8.768;2023-04-01T09:15:54;8.40;83.70
38265;DHT22;24062;47.480;8.768;2023-04-01T09:21:57;8.60;84.60
38265;DHT22;24062;47.480;8.768;2023-04-01T09:24:41;8.70;83.90
38265;DHT22;24062;47.480;8.768;2023-04-01T09:27:18;8.60;84.40
38265;DHT22;24062;47.480;8.768;2023-04-01T09:36:18;8.60;84.90
38265;DHT22;24062;47.480;8.768;2023-04-01T09:38:56;8.50;85.00
38265;DHT22;24062;47.480;8.768;2023-04-01T09:41:29;8.70;85.20
38265;DHT22;24062;47.480;8.768;2023-04-01T09:44:01;8.70;84.70
38265;DHT22;24062;47.480;8.768;2023-04-01T09:46:37;8.60;85.50
38265;DHT22;24062;47.480;8.768;2023-04-01T09:49:49;8.70;86.00
38265;DHT22;24062;47.480;8.768;2023-04-01T09:52:26;8.80;86.90
38265;DHT22;24062;47.480;8.768;2023-04-01T09:55:06;9.00;86.30
38265;DHT22;24062;47.480;8.768;2023-04-01T10:07:35;9.80;85.40
38265;DHT22;24062;47.480;8.768;2023-04-01T10:10:45;9.80;83.80
38265;DHT22;24062;47.480;8.768;2023-04-01T10:17:00;10.10;84.10
38265;DHT22;24062;47.480;8.768;2023-04-01T10:23:09;10.50;81.30
38265;DHT22;24062;47.480;8.768;2023-04-01T10:32:00;10.80;79.90
38265;DHT22;24062;47.480;8.768;2023-04-01T10:37:48;10.70;79.90
38265;DHT22;24062;47.480;8.768;2023-04-01T10:40:37;10.80;79.20
38265;DHT22;24062;47.480;8.768;2023-04-01T10:49:43;11.20;79.50
38265;DHT22;24062;47.480;8.768;2023-04-01T10:55:37;11.50;75.50
38265;DHT22;24062;47.480;8.768;2023-04-01T10:58:33;11.50;75.90
38265;DHT22;24062;47.480;8.768;2023-04-01T11:01:21;11.60;77.40
38265;DHT22;24062;47.480;8.768;2023-04-01T11:07:22;11.80;75.70
38265;DHT22;24062;47.480;8.768;2023-04-01T11:19:49;12.00;71.70
38265;DHT22;24062;47.480;8.768;2023-04-01T11:22:40;12.10;72.30
38265;DHT22;24062;47.480;8.768;2023-04-01T11:25:29;12.40;73.40
38265;DHT22;24062;47.480;8.768;2023-04-01T11:28:33;12.50;69.90
38265;DHT22;24062;47.480;8.768;2023-04-01T11:33:55;12.50;68.60
38265;DHT22;24062;47.480;8.768;2023-04-01T11:36:33;12.40;69.00
38265;DHT22;24062;47.480;8.768;2023-04-01T11:39:14;12.40;70.90
38265;DHT22;24062;47.480;8.768;2023-04-01T11:41:54;12.80;70.50
38265;DHT22;24062;47.480;8.768;2023-04-01T11:44:27;12.70;67.80
38265;DHT22;24062;47.480;8.768;2023-04-01T11:47:19;12.60;68.00
38265;DHT22;24062;47.480;8.768;2023-04-01T11:49:59;12.40;68.70
38265;DHT22;24062;47.480;8.768;2023-04-01T11:55:41;11.90;68.50
38265;DHT22;24062;47.480;8.768;2023-04-01T12:01:17;11.80;68.80
38265;DHT22;24062;47.480;8.768;2023-04-01T12:07:03;11.80;68.70
38265;DHT22;24062;47.480;8.768;2023-04-01T12:09:40;11.60;69.10
38265;DHT22;24062;47.480;8.768;2023-04-01T12:12:17;11.50;69.70
38265;DHT22;24062;47.480;8.768;2023-04-01T12:14:53;11.50;69.40
38265;DHT22;24062;47.480;8.768;2023-04-01T12:17:29;11.30;69.20
38265;DHT22;24062;47.480;8.768;2023-04-01T12:20:20;11.30;70.60
38265;DHT22;24062;47.480;8.768;2023-04-01T12:22:58;11.30;70.40
38265;DHT22;24062;47.480;8.768;2023-04-01T12:25:45;11.40;71.20
38265;DHT22;24062;47.480;8.768;2023-04-01T12:28:22;11.60;71.50
38265;DHT22;24062;47.480;8.768;2023-04-01T12:31:04;11.70;70.90
38265;DHT22;24062;47.480;8.768;2023-04-01T12:33:48;11.60;71.20
38265;DHT22;24062;47.480;8.768;2023-04-01T12:36:26;11.60;70.90
38265;DHT22;24062;47.480;8.768;2023-04-01T12:39:17;11.70;71.70
38265;DHT22;24062;47.480;8.768;2023-04-01T12:41:52;11.70;71.20
38265;DHT22;24062;47.480;8.768;2023-04-01T12:44:32;11.50;71.00
38265;DHT22;24062;47.480;8.768;2023-04-01T12:47:17;11.30;71.90
38265;DHT22;24062;47.480;8.768;2023-04-01T12:49:56;11.10;72.00
38265;DHT22;24062;47.480;8.768;2023-04-01T12:52:36;10.80;72.40
38265;DHT22;24062;47.480;8.768;2023-04-01T12:55:32;10.70;74.30
38265;DHT22;24062;47.480;8.768;2023-04-01T12:58:37;10.60;74.70
38265;DHT22;24062;47.480;8.768;2023-04-01T13:01:23;10.90;76.40
38265;DHT22;24062;47.480;8.768;2023-04-01T13:04:23;11.20;75.10
38265;DHT22;24062;47.480;8.768;2023-04-01T13:07:04;11.60;75.60
38265;DHT22;24062;47.480;8.768;2023-04-01T13:09:42;11.90;73.70
38265;DHT22;24062;47.480;8.768;2023-04-01T13:15:19;12.20;71.80
38265;DHT22;24062;47.480;8.768;2023-04-01T13:17:53;12.50;71.50
38265;DHT22;24062;47.480;8.768;2023-04-01T13:20:36;12.80;72.50
38265;DHT22;24062;47.480;8.768;2023-04-01T13:23:19;13.40;70.70
38265;DHT22;24062;47.480;8.768;2023-04-01T13:25:54;13.60;68.20
38265;DHT22;24062;47.480;8.768;2023-04-01T13:28:28;13.50;67.90
38265;DHT22;24062;47.480;8.768;2023-04-01T13:31:02;13.50;66.70
38265;DHT22;24062;47.480;8.768;2023-04-01T13:33:37;13.50;65.60
38265;DHT22;24062;47.480;8.768;2023-04-01T13:36:19;13.50;64.50
38265;DHT22;24062;47.480;8.768;2023-04-01T13:39:24;13.50;64.10
38265;DHT22;24062;47.480;8.768;2023-04-01T13:42:13;13.60;64.00
38265;DHT22;24062;47.480;8.768;2023-04-01T13:44:46;13.90;65.80
38265;DHT22;24062;47.480;8.768;2023-04-01T13:47:56;14.00;63.90
38265;DHT22;24062;47.480;8.768;2023-04-01T13:50:37;13.90;61.30
38265;DHT22;24062;47.480;8.768;2023-04-01T13:53:20;13.40;60.40
38265;DHT22;24062;47.480;8.768;2023-04-01T13:56:06;13.20;61.30
38265;DHT22;24062;47.480;8.768;2023-04-01T13:58:51;13.00;61.30
38265;DHT22;24062;47.480;8.768;2023-04-01T14:01:28;12.90;61.50
38265;DHT22;24062;47.480;8.768;2023-04-01T14:07:04;12.90;61.20
38265;DHT22;24062;47.480;8.768;2023-04-01T14:09:49;12.90;61.70
38265;DHT22;24062;47.480;8.768;2023-04-01T14:12:29;13.10;62.70
38265;DHT22;24062;47.480;8.768;2023-04-01T14:15:18;13.20;61.80
38265;DHT22;24062;47.480;8.768;2023-04-01T14:18:02;13.10;61.60
38265;DHT22;24062;47.480;8.768;2023-04-01T14:20:40;13.00;62.40
38265;DHT22;24062;47.480;8.768;2023-04-01T14:23:42;12.90;61.50
38265;DHT22;24062;47.480;8.768;2023-04-01T14:26:27;12.80;62.90
38265;DHT22;24062;47.480;8.768;2023-04-01T14:29:09;12.70;61.70
38265;DHT22;24062;47.480;8.768;2023-04-01T14:31:53;12.60;62.00
38265;DHT22;24062;47.480;8.768;2023-04-01T14:34:37;12.50;62.10
38265;DHT22;24062;47.480;8.768;2023-04-01T14:37:26;12.40;62.00
38265;DHT22;24062;47.480;8.768;2023-04-01T14:42:59;12.20;62.10
38265;DHT22;24062;47.480;8.768;2023-04-01T14:45:46;12.10;62.00
38265;DHT22;24062;47.480;8.768;2023-04-01T14:48:25;11.90;63.30
38265;DHT22;24062;47.480;8.768;2023-04-01T14:50:57;11.50;64.40
38265;DHT22;24062;47.480;8.768;2023-04-01T14:53:31;10.70;65.00
38265;DHT22;24062;47.480;8.768;2023-04-01T14:56:02;10.10;67.70
38265;DHT22;24062;47.480;8.768;2023-04-01T14:58:43;9.50;69.90
38265;DHT22;24062;47.480;8.768;2023-04-01T15:01:37;9.00;73.40
38265;DHT22;24062;47.480;8.768;2023-04-01T15:07:18;8.40;74.00
38265;DHT22;24062;47.480;8.768;2023-04-01T15:09:53;8.30;74.50
38265;DHT22;24062;47.480;8.768;2023-04-01T15:12:29;8.30;74.80
38265;DHT22;24062;47.480;8.768;2023-04-01T15:15:15;8.50;75.50
38265;DHT22;24062;47.480;8.768;2023-04-01T15:18:03;8.60;76.30
38265;DHT22;24062;47.480;8.768;2023-04-01T15:23:40;8.60;76.80
38265;DHT22;24062;47.480;8.768;2023-04-01T15:26:21;8.70;78.20
38265;DHT22;24062;47.480;8.768;2023-04-01T15:29:12;8.70;79.00
38265;DHT22;24062;47.480;8.768;2023-04-01T15:31:49;8.80;79.10
38265;DHT22;24062;47.480;8.768;2023-04-01T15:34:27;8.80;79.90
38265;DHT22;24062;47.480;8.768;2023-04-01T15:37:01;8.90;79.90
38265;DHT22;24062;47.480;8.768;2023-04-01T15:39:39;9.10;80.30
38265;DHT22;24062;47.480;8.768;2023-04-01T15:42:23;9.20;80.20
38265;DHT22;24062;47.480;8.768;2023-04-01T15:45:02;9.60;81.30
38265;DHT22;24062;47.480;8.768;2023-04-01T15:47:39;10.10;80.70
38265;DHT22;24062;47.480;8.768;2023-04-01T15:50:40;11.00;81.60
38265;DHT22;24062;47.480;8.768;2023-04-01T15:53:26;12.80;79.80
38265;DHT22;24062;47.480;8.768;2023-04-01T15:55:59;12.80;74.30
38265;DHT22;24062;47.480;8.768;2023-04-01T15:58:51;13.50;73.60
38265;DHT22;24062;47.480;8.768;2023-04-01T16:01:28;12.90;73.10
38265;DHT22;24062;47.480;8.768;2023-04-01T16:04:12;12.60;73.60
38265;DHT22;24062;47.480;8.768;2023-04-01T16:09:47;12.60;73.60
38265;DHT22;24062;47.480;8.768;2023-04-01T16:12:19;12.90;75.30
38265;DHT22;24062;47.480;8.768;2023-04-01T16:14:59;13.70;72.10
38265;DHT22;24062;47.480;8.768;2023-04-01T16:17:48;15.80;79.60
38265;DHT22;24062;47.480;8.768;2023-04-01T16:20:19;20.30;78.00
38265;DHT22;24062;47.480;8.768;2023-04-01T16:22:55;22.20;69.10
38265;DHT22;24062;47.480;8.768;2023-04-01T16:25:32;20.40;60.10
38265;DHT22;24062;47.480;8.768;2023-04-01T16:28:13;17.70;59.30
38265;DHT22;24062;47.480;8.768;2023-04-01T16:30:46;15.80;62.70
38265;DHT22;24062;47.480;8.768;2023-04-01T16:33:19;14.50;63.00
38265;DHT22;24062;47.480;8.768;2023-04-01T16:35:54;13.60;63.40
38265;DHT22;24062;47.480;8.768;2023-04-01T16:38:26;13.00;65.60
38265;DHT22;24062;47.480;8.768;2023-04-01T16:41:10;12.70;65.80
38265;DHT22;24062;47.480;8.768;2023-04-01T16:43:42;12.40;66.60
38265;DHT22;24062;47.480;8.768;2023-04-01T16:46:33;12.20;66.70
38265;DHT22;24062;47.480;8.768;2023-04-01T16:49:24;12.10;67.00
38265;DHT22;24062;47.480;8.768;2023-04-01T16:51:54;11.90;66.60
38265;DHT22;24062;47.480;8.768;2023-04-01T16:54:35;11.50;66.90
38265;DHT22;24062;47.480;8.768;2023-04-01T16:57:17;11.40;67.70
38265;DHT22;24062;47.480;8.768;2023-04-01T16:59:47;11.20;67.60
38265;DHT22;24062;47.480;8.768;2023-04-01T17:02:23;11.10;68.40
38265;DHT22;24062;47.480;8.768;2023-04-01T17:04:58;11.00;68.40
38265;DHT22;24062;47.480;8.768;2023-04-01T17:07:35;10.90;68.40
38265;DHT22;24062;47.480;8.768;2023-04-01T17:10:35;10.70;68.30
38265;DHT22;24062;47.480;8.768;2023-04-01T17:13:23;10.50;68.80
38265;DHT22;24062;47.480;8.768;2023-04-01T17:15:59;10.30;69.40
38265;DHT22;24062;47.480;8.768;2023-04-01T17:18:33;10.30;69.60
38265;DHT22;24062;47.480;8.768;2023-04-01T17:21:07;10.30;70.10
38265;DHT22;24062;47.480;8.768;2023-04-01T17:23:40;10.20;69.90
38265;DHT22;24062;47.480;8.768;2023-04-01T17:26:24;10.10;70.10
38265;DHT22;24062;47.480;8.768;2023-04-01T17:28:58;10.00;70.80
38265;DHT22;24062;47.480;8.768;2023-04-01T17:31:35;9.90;72.00
38265;DHT22;24062;47.480;8.768;2023-04-01T17:34:15;9.80;72.30
38265;DHT22;24062;47.480;8.768;2023-04-01T17:36:55;9.70;72.40
38265;DHT22;24062;47.480;8.768;2023-04-01T17:39:35;9.60;72.60
38265;DHT22;24062;47.480;8.768;2023-04-01T17:42:09;9.60;72.70
38265;DHT22;24062;47.480;8.768;2023-04-01T17:44:45;9.60;72.80
38265;DHT22;24062;47.480;8.768;2023-04-01T17:47:28;9.50;72.80
38265;DHT22;24062;47.480;8.768;2023-04-01T17:50:07;9.50;72.80
38265;DHT22;24062;47.480;8.768;2023-04-01T17:52:42;9.30;72.90
38265;DHT22;24062;47.480;8.768;2023-04-01T17:55:41;9.30;73.00
38265;DHT22;24062;47.480;8.768;2023-04-01T17:58:18;9.20;73.10
38265;DHT22;24062;47.480;8.768;2023-04-01T18:01:13;9.10;73.10
38265;DHT22;24062;47.480;8.768;2023-04-01T18:04:11;9.00;73.10
38265;DHT22;24062;47.480;8.768;2023-04-01T18:09:42;8.90;73.60
38265;DHT22;24062;47.480;8.768;2023-04-01T18:12:19;8.90;74.10
38265;DHT22;24062;47.480;8.768;2023-04-01T18:15:15;8.80;74.00
38265;DHT22;24062;47.480;8.768;2023-04-01T18:18:02;8.80;74.00
38265;DHT22;24062;47.480;8.768;2023-04-01T18:20:43;8.70;74.00
38265;DHT22;24062;47.480;8.768;2023-04-01T18:23:22;8.60;74.00